createdAt,value
2018-12-29T00:03:43.433Z,95.40
2018-12-29T00:08:47.709Z,95.50
2018-12-29T00:13:51.381Z,95.50
2018-12-29T00:18:55.074Z,95.60
2018-12-29T00:23:58.779Z,95.30
2018-12-29T00:29:02.742Z,95.60
2018-12-29T00:34:06.478Z,95.30
2018-12-29T00:39:10.133Z,95.30
2018-12-29T00:44:13.805Z,95.00
2018-12-29T00:49:17.492Z,95.10
2018-12-29T00:54:21.177Z,95.20
2018-12-29T00:59:24.846Z,95.20
2018-12-29T01:04:29.061Z,95.20
2018-12-29T01:09:33.317Z,95.30
2018-12-29T01:14:37.248Z,95.30
2018-12-29T01:19:40.965Z,95.30
2018-12-29T01:24:44.698Z,95.80
2018-12-29T01:29:48.374Z,96.00
2018-12-29T01:34:52.058Z,96.10
2018-12-29T01:39:55.734Z,96.20
2018-12-29T01:44:59.447Z,96.30
2018-12-29T01:50:03.186Z,96.30
2018-12-29T01:55:06.913Z,96.50
2018-12-29T02:00:10.577Z,96.60
2018-12-29T02:05:14.602Z,96.90
2018-12-29T02:10:18.285Z,96.20
2018-12-29T02:15:24.912Z,96.50
2018-12-29T02:20:28.032Z,96.30
2018-12-29T02:25:31.725Z,96.10
2018-12-29T02:30:35.437Z,95.70
2018-12-29T02:35:39.199Z,95.40
2018-12-29T02:40:42.912Z,95.40
2018-12-29T02:45:46.590Z,95.30
2018-12-29T02:50:50.558Z,95.20
2018-12-29T02:55:54.320Z,95.10
2018-12-29T03:00:58.207Z,94.90
2018-12-29T03:06:02.195Z,94.70
2018-12-29T03:11:05.858Z,94.50
2018-12-29T03:16:09.523Z,93.90
2018-12-29T03:21:13.251Z,94.30
2018-12-29T03:26:16.996Z,94.10
2018-12-29T03:31:20.869Z,94.40
2018-12-29T03:36:24.662Z,93.70
2018-12-29T03:41:28.351Z,94.00
2018-12-29T03:46:32.045Z,93.80
2018-12-29T03:51:35.749Z,93.80
2018-12-29T03:56:39.758Z,93.70
2018-12-29T04:01:43.420Z,93.60
2018-12-29T04:06:47.123Z,93.90
2018-12-29T04:11:50.810Z,94.50
2018-12-29T04:16:54.740Z,94.70
2018-12-29T04:21:58.424Z,94.90
2018-12-29T04:27:02.115Z,94.80
2018-12-29T04:32:05.805Z,95.20
2018-12-29T04:37:09.506Z,94.80
2018-12-29T04:42:13.227Z,95.10
2018-12-29T04:47:16.886Z,95.10
2018-12-29T04:52:20.820Z,94.70
2018-12-29T04:57:24.723Z,94.70
2018-12-29T05:02:28.420Z,94.50
2018-12-29T05:07:32.089Z,94.70
2018-12-29T05:12:35.828Z,94.00
2018-12-29T05:17:39.891Z,93.80
2018-12-29T05:22:43.572Z,94.00
2018-12-29T05:27:47.327Z,93.70
2018-12-29T05:32:51.412Z,93.60
2018-12-29T05:37:55.117Z,93.70
2018-12-29T05:42:58.812Z,93.90
2018-12-29T05:48:02.828Z,93.60
2018-12-29T05:53:06.557Z,93.60
2018-12-29T05:58:10.633Z,93.10
2018-12-29T06:03:14.412Z,93.10
2018-12-29T06:08:18.122Z,92.70
2018-12-29T06:13:22.118Z,93.60
2018-12-29T06:18:25.812Z,94.50
2018-12-29T06:23:29.480Z,94.70
2018-12-29T06:28:33.492Z,95.50
2018-12-29T06:33:37.171Z,95.70
2018-12-29T06:38:40.885Z,95.70
2018-12-29T06:43:44.634Z,95.80
2018-12-29T06:48:48.341Z,95.80
2018-12-29T06:53:52.615Z,96.00
2018-12-29T06:58:56.553Z,96.30
2018-12-29T07:04:00.250Z,97.60
2018-12-29T07:09:05.755Z,96.70
2018-12-29T07:14:09.447Z,97.70
2018-12-29T07:19:13.717Z,96.10
2018-12-29T07:24:17.770Z,97.00
2018-12-29T07:29:21.494Z,97.20
2018-12-29T07:34:25.464Z,97.50
2018-12-29T07:39:29.708Z,97.10
2018-12-29T07:44:33.444Z,96.10
2018-12-29T07:49:37.527Z,96.30
2018-12-29T07:54:41.720Z,95.80
2018-12-29T07:59:45.427Z,95.90
2018-12-29T08:04:49.132Z,96.10
2018-12-29T08:09:52.877Z,95.80
2018-12-29T08:14:56.580Z,95.20
2018-12-29T08:20:22.375Z,96.00
2018-12-29T08:25:26.718Z,96.00
2018-12-29T08:30:30.443Z,95.40
2018-12-29T08:35:34.153Z,95.90
2018-12-29T08:40:37.891Z,95.20
2018-12-29T08:45:41.593Z,94.90
2018-12-29T08:50:45.345Z,94.80
2018-12-29T08:55:49.134Z,94.70
2018-12-29T09:00:52.849Z,94.90
2018-12-29T09:05:56.565Z,94.30
2018-12-29T09:11:00.252Z,94.50
2018-12-29T09:16:03.931Z,94.30
2018-12-29T09:21:07.697Z,94.20
2018-12-29T09:26:11.493Z,93.90
2018-12-29T09:31:15.818Z,94.00
2018-12-29T09:36:21.320Z,94.50
2018-12-29T09:41:25.224Z,94.60
2018-12-29T09:46:28.910Z,94.20
2018-12-29T09:51:32.624Z,94.00
2018-12-29T09:56:36.352Z,94.10
2018-12-29T10:01:40.065Z,93.90
2018-12-29T10:06:43.757Z,93.80
2018-12-29T10:11:47.739Z,93.60
2018-12-29T10:16:51.514Z,93.60
2018-12-29T10:21:55.499Z,94.00
2018-12-29T10:26:59.244Z,93.80
2018-12-29T10:32:03.022Z,93.60
2018-12-29T10:37:06.790Z,93.60
2018-12-29T10:42:10.729Z,93.80
2018-12-29T10:47:14.707Z,93.90
2018-12-29T10:52:18.436Z,94.20
2018-12-29T10:57:22.234Z,94.50
2018-12-29T11:02:26.212Z,94.70
2018-12-29T11:07:29.909Z,95.10
2018-12-29T11:12:33.908Z,95.10
2018-12-29T11:17:42.154Z,95.20
2018-12-29T11:22:43.399Z,95.30
2018-12-29T11:27:47.425Z,95.00
2018-12-29T11:32:51.413Z,95.20
2018-12-29T11:37:55.096Z,95.00
2018-12-29T11:42:58.796Z,94.80
2018-12-29T11:48:02.471Z,94.30
2018-12-29T11:53:06.164Z,95.20
2018-12-29T11:58:09.847Z,95.60
2018-12-29T12:03:13.501Z,96.60
2018-12-29T12:08:17.215Z,96.30
2018-12-29T12:13:20.877Z,95.90
2018-12-29T12:18:24.899Z,95.40
2018-12-29T12:23:28.596Z,95.20
2018-12-29T12:28:32.267Z,95.00
2018-12-29T12:33:35.963Z,93.90
2018-12-29T12:38:39.629Z,94.50
2018-12-29T12:43:43.287Z,93.70
2018-12-29T12:48:47.649Z,93.70
2018-12-29T12:53:51.306Z,94.10
2018-12-29T12:58:55.073Z,95.20
2018-12-29T13:03:59.135Z,96.20
2018-12-29T13:09:03.589Z,95.70
2018-12-29T13:14:07.253Z,97.70
2018-12-29T13:19:10.925Z,95.50
2018-12-29T13:24:14.683Z,95.60
2018-12-29T13:29:19.383Z,95.60
2018-12-29T13:34:23.127Z,95.90
2018-12-29T13:39:26.913Z,96.60
2018-12-29T13:44:30.588Z,96.60
2018-12-29T13:49:34.255Z,95.90
2018-12-29T13:54:38.119Z,96.60
2018-12-29T13:59:42.370Z,96.30
2018-12-29T14:04:46.195Z,95.50
2018-12-29T14:09:50.005Z,94.50
2018-12-29T14:14:53.741Z,94.00
2018-12-29T14:19:57.843Z,93.30
2018-12-29T14:25:01.550Z,94.00
2018-12-29T14:30:06.015Z,93.20
2018-12-29T14:35:09.833Z,92.50
2018-12-29T14:40:13.665Z,93.40
2018-12-29T14:45:17.811Z,93.40
2018-12-29T14:50:21.537Z,93.80
2018-12-29T14:55:25.191Z,93.90
2018-12-29T15:00:29.015Z,94.00
2018-12-29T15:05:32.706Z,93.30
2018-12-29T15:10:36.730Z,93.50
2018-12-29T15:15:41.019Z,93.80
2018-12-29T15:20:45.060Z,92.60
2018-12-29T15:25:49.156Z,92.80
2018-12-29T15:30:52.914Z,92.60
2018-12-29T15:35:56.748Z,92.30
2018-12-29T15:41:00.835Z,92.80
2018-12-29T15:46:05.243Z,92.60
2018-12-29T15:51:09.278Z,92.40
2018-12-29T15:56:13.396Z,92.10
2018-12-29T16:01:17.217Z,92.00
2018-12-29T16:06:21.010Z,92.10
2018-12-29T16:11:26.430Z,92.10
2018-12-29T16:16:30.645Z,92.20
2018-12-29T16:21:34.791Z,92.20
2018-12-29T16:26:38.582Z,91.40
2018-12-29T16:31:42.769Z,91.30
2018-12-29T16:36:46.993Z,91.30
2018-12-29T16:41:51.026Z,91.30
2018-12-29T16:46:54.784Z,91.00
2018-12-29T16:51:58.527Z,91.10
2018-12-29T16:57:02.499Z,90.70
2018-12-29T17:02:06.454Z,90.70
2018-12-29T17:07:10.273Z,90.70
2018-12-29T17:12:13.951Z,90.00
2018-12-29T17:17:18.247Z,90.20
2018-12-29T17:22:22.017Z,89.60
2018-12-29T17:27:25.776Z,88.60
2018-12-29T17:32:29.878Z,89.30
2018-12-29T17:37:33.927Z,88.90
2018-12-29T17:42:38.022Z,88.30
2018-12-29T17:47:42.216Z,87.40
2018-12-29T17:52:45.913Z,87.70
2018-12-29T17:57:49.780Z,87.20
2018-12-29T18:02:53.628Z,86.30
2018-12-29T18:07:57.329Z,86.80
2018-12-29T18:13:01.492Z,86.40
2018-12-29T18:18:05.357Z,86.50
2018-12-29T18:23:09.703Z,86.30
2018-12-29T18:28:13.488Z,86.70
2018-12-29T18:33:17.308Z,86.30
2018-12-29T18:38:22.153Z,86.50
2018-12-29T18:43:25.985Z,85.10
2018-12-29T18:48:29.787Z,84.50
2018-12-29T18:53:33.588Z,85.20
2018-12-29T18:58:37.463Z,84.80
2018-12-29T19:03:41.269Z,85.30
2018-12-29T19:08:45.449Z,85.10
2018-12-29T19:13:49.250Z,84.80
2018-12-29T19:18:53.277Z,86.40
2018-12-29T19:23:57.894Z,84.80
2018-12-29T19:29:02.127Z,84.90
2018-12-29T19:34:06.132Z,84.60
2018-12-29T19:39:10.393Z,84.50
2018-12-29T19:44:14.566Z,84.20
2018-12-29T19:49:18.668Z,83.90
2018-12-29T19:54:30.380Z,83.30
2018-12-29T19:59:34.548Z,84.40
2018-12-29T20:04:38.367Z,83.10
2018-12-29T20:09:53.518Z,83.70
2018-12-29T20:14:57.223Z,82.80
2018-12-29T20:20:01.568Z,83.90
2018-12-29T20:25:06.080Z,83.50
2018-12-29T20:30:10.337Z,82.50
2018-12-29T20:35:14.163Z,82.90
2018-12-29T20:40:17.985Z,83.50
2018-12-29T20:45:22.470Z,87.90
2018-12-29T20:50:26.236Z,85.50
2018-12-29T20:55:30.208Z,86.40
2018-12-29T21:00:34.133Z,86.60
2018-12-29T21:05:37.956Z,86.40
2018-12-29T21:10:41.743Z,86.40
2018-12-29T21:15:48.773Z,85.80
2018-12-29T21:20:52.707Z,86.00
2018-12-29T21:25:57.039Z,86.80
2018-12-29T21:31:00.873Z,90.50
2018-12-29T21:36:04.847Z,90.90
2018-12-29T21:41:08.760Z,91.70
2018-12-29T21:46:12.494Z,91.10
2018-12-29T21:51:16.285Z,91.20
2018-12-29T21:56:20.146Z,91.40
2018-12-29T22:01:23.944Z,90.70
2018-12-29T22:06:27.796Z,90.20
2018-12-29T22:11:31.629Z,90.10
2018-12-29T22:16:35.440Z,90.20
2018-12-29T22:21:39.904Z,90.70
2018-12-29T22:26:43.652Z,90.00
2018-12-29T22:31:47.432Z,92.20
2018-12-29T22:36:51.491Z,91.40
2018-12-29T22:41:55.274Z,91.90
2018-12-29T22:46:59.353Z,92.10
2018-12-29T22:52:03.186Z,93.10
2018-12-29T22:57:06.965Z,91.70
2018-12-29T23:02:10.881Z,90.30
2018-12-29T23:07:14.673Z,90.30
2018-12-29T23:12:19.533Z,88.20
2018-12-29T23:17:23.254Z,90.40
2018-12-29T23:22:27.200Z,90.60
2018-12-29T23:27:31.268Z,87.80
2018-12-29T23:32:35.009Z,88.30
2018-12-29T23:37:38.821Z,88.00
2018-12-29T23:42:43.139Z,89.50
2018-12-29T23:47:46.808Z,88.50
2018-12-29T23:52:50.945Z,88.20
2018-12-29T23:57:55.006Z,89.20
